SAN weather

San Diego International Airport
San Diego, California, United States

Public forecast

Using degrees Fahrenheit for public forecast. Weather courtesy of forecast.io.

METAR (pilot weather report)

Retrieved 2018/10/19 07:51 UTC (36 minutes ago):

KSAN 190751Z 00000KT 10SM CLR 21/08 A3001 RMK AO2 SLP161 T02110078 402780156

TAF (pilot weather forecast)

Retrieved 2018/10/19 06:22 UTC (2 hours ago):

TAF KSAN 190520Z 1906/2012 34004KT P6SM SKC FM192000 31010G16KT P6SM SKC FM200300 VRB05KT P6SM SKC